Time;durP1;ratioP1;P1;durP2;ratioP2;P2;SDS_P1;SDS_P2;PMS_P1;PMS_P2;Temp;Humidity;BMP_temperature;BMP_pressure;BME280_temperature;BME280_humidity;BME280_pressure;Samples;Min_cycle;Max_cycle;Signal;HPM_P1;HPM_P2
2023/03/15 00:04:14;;;;;;;4.5;2.5;;;;;;;9.9;74.8;97360;;;;
2023/03/15 00:15:14;;;;;;;8.7;4.5;;;;;;;9.2;74.1;97440;;;;
2023/03/15 00:25:14;;;;;;;8.7;4.5;;;;;;;8.2;75.2;97490;;;;
2023/03/15 00:36:14;;;;;;;8.7;4.5;;;;;;;7.3;76.8;97540;;;;
2023/03/15 00:46:14;;;;;;;10.6;3;;;;;;;7.1;76.6;97570;;;;
2023/03/15 00:57:14;;;;;;;10.6;3;;;;;;;6.4;76.5;97620;;;;
2023/03/15 01:07:14;;;;;;;10.6;3;;;;;;;5.9;78.6;97650;;;;
2023/03/15 01:17:14;;;;;;;5.6;2.9;;;;;;;5.4;80.5;97680;;;;
2023/03/15 01:28:14;;;;;;;5.6;2.9;;;;;;;5.1;81.6;97710;;;;
2023/03/15 01:38:14;;;;;;;6.9;4;;;;;;;4.9;81.8;97740;;;;
2023/03/15 01:49:14;;;;;;;6.9;4;;;;;;;4.8;81.1;97760;;;;
2023/03/15 02:00:14;;;;;;;6.9;4;;;;;;;4.7;79;97790;;;;
2023/03/15 02:11:14;;;;;;;3.1;1.5;;;;;;;4.6;78.3;97800;;;;
2023/03/15 02:21:14;;;;;;;3.1;1.5;;;;;;;4.4;77.5;97840;;;;
2023/03/15 02:31:14;;;;;;;3.1;1.5;;;;;;;4.3;77;97850;;;;
2023/03/15 02:42:14;;;;;;;3;1.6;;;;;;;4.1;77.4;97850;;;;
2023/03/15 02:53:14;;;;;;;3;1.6;;;;;;;4;78.5;97880;;;;
2023/03/15 03:03:14;;;;;;;3;1.6;;;;;;;3.9;78.9;97890;;;;
2023/03/15 03:13:14;;;;;;;2.3;1.3;;;;;;;3.8;79.4;97910;;;;
2023/03/15 03:23:14;;;;;;;2.3;1.3;;;;;;;3.7;79.3;97920;;;;
2023/03/15 03:33:14;;;;;;;2.3;1.3;;;;;;;3.8;78.3;97930;;;;
2023/03/15 03:44:14;;;;;;;4.2;1.5;;;;;;;3.7;77.1;97930;;;;
2023/03/15 03:54:14;;;;;;;4.2;1.5;;;;;;;3.8;77.3;97940;;;;
2023/03/15 04:05:14;;;;;;;4.2;1.5;;;;;;;3.7;77.4;97950;;;;
2023/03/15 04:16:14;;;;;;;3.8;1.7;;;;;;;3.6;77.5;97970;;;;
2023/03/15 04:27:14;;;;;;;3.8;1.7;;;;;;;3.6;77.3;97970;;;;
2023/03/15 04:38:14;;;;;;;4.9;2.7;;;;;;;3.5;76.2;97980;;;;
2023/03/15 04:48:14;;;;;;;4.9;2.7;;;;;;;3.5;76;98000;;;;
2023/03/15 04:58:14;;;;;;;4.9;2.7;;;;;;;3.5;74.8;98000;;;;
2023/03/15 05:09:17;;;;;;;4.1;2.7;;;;;;;3.4;73.8;98020;;;;
2023/03/15 05:19:14;;;;;;;4.1;2.7;;;;;;;3.5;73.8;98040;;;;
2023/03/15 05:29:14;;;;;;;4.1;2.7;;;;;;;3.5;74.1;98050;;;;
2023/03/15 05:40:14;;;;;;;7.2;2.3;;;;;;;3.6;74;98070;;;;
2023/03/15 05:50:14;;;;;;;7.2;2.3;;;;;;;3.6;73.3;98080;;;;
2023/03/15 06:00:15;;;;;;;7.2;2.3;;;;;;;3.8;73.6;98100;;;;
2023/03/15 06:11:14;;;;;;;9.7;2.6;;;;;;;3.9;73.8;98120;;;;
2023/03/15 06:22:14;;;;;;;9.7;2.6;;;;;;;3.8;73.3;98150;;;;
2023/03/15 06:32:14;;;;;;;9.7;2.6;;;;;;;3.8;73.3;98160;;;;
2023/03/15 06:42:14;;;;;;;9.6;4.9;;;;;;;3.8;72.4;98180;;;;
2023/03/15 06:52:14;;;;;;;9.6;4.9;;;;;;;4;72.6;98180;;;;
2023/03/15 07:02:14;;;;;;;9.6;4.9;;;;;;;4.1;71.3;98210;;;;
2023/03/15 07:13:14;;;;;;;8.1;3.3;;;;;;;4.2;71;98210;;;;
2023/03/15 07:23:14;;;;;;;8.1;3.3;;;;;;;4.4;70.7;98210;;;;
2023/03/15 07:34:14;;;;;;;8.1;3.3;;;;;;;4.6;69.9;98220;;;;
2023/03/15 07:44:14;;;;;;;9.7;3.4;;;;;;;5.1;68.9;98240;;;;
2023/03/15 07:55:14;;;;;;;9.7;3.4;;;;;;;5.2;66.6;98250;;;;
2023/03/15 08:05:17;;;;;;;9.7;3.4;;;;;;;5.2;67.2;98270;;;;
2023/03/15 08:15:14;;;;;;;9.9;4.7;;;;;;;5.3;67.5;98280;;;;
2023/03/15 08:26:14;;;;;;;9.9;4.7;;;;;;;5.4;66.7;98280;;;;
2023/03/15 08:37:14;;;;;;;9;4.1;;;;;;;5.4;65.6;98290;;;;
2023/03/15 08:47:14;;;;;;;9;4.1;;;;;;;5.7;65.3;98280;;;;
2023/03/15 08:57:14;;;;;;;9;4.1;;;;;;;5.6;64.9;98290;;;;
2023/03/15 09:07:14;;;;;;;11.7;4.9;;;;;;;5.8;64.1;98310;;;;
2023/03/15 09:18:14;;;;;;;11.7;4.9;;;;;;;5.7;63.1;98330;;;;
2023/03/15 09:28:14;;;;;;;11.7;4.9;;;;;;;5.3;62.3;98330;;;;
2023/03/15 09:39:14;;;;;;;9.7;4.5;;;;;;;5.5;62.8;98340;;;;
2023/03/15 09:50:14;;;;;;;9.7;4.5;;;;;;;5.7;60.9;98340;;;;
2023/03/15 10:00:15;;;;;;;9.7;4.5;;;;;;;5.9;60.5;98350;;;;
2023/03/15 10:11:14;;;;;;;8.9;3.2;;;;;;;5.7;59.4;98360;;;;
2023/03/15 10:21:14;;;;;;;8.9;3.2;;;;;;;6;58.6;98370;;;;
2023/03/15 10:32:16;;;;;;;8.9;3.2;;;;;;;6;57.7;98380;;;;
2023/03/15 10:42:14;;;;;;;7.5;3.7;;;;;;;6.3;58.2;98380;;;;
2023/03/15 10:52:14;;;;;;;7.5;3.7;;;;;;;6.3;57.1;98390;;;;
2023/03/15 11:03:14;;;;;;;7.5;3.7;;;;;;;6.4;57;98390;;;;
2023/03/15 11:13:14;;;;;;;6.9;2.7;;;;;;;6.6;56.4;98400;;;;
2023/03/15 11:23:14;;;;;;;6.9;2.7;;;;;;;6.5;56.1;98390;;;;
2023/03/15 11:33:14;;;;;;;6.9;2.7;;;;;;;6.4;55;98380;;;;
2023/03/15 11:43:14;;;;;;;6.5;2.5;;;;;;;6.5;54;98400;;;;
2023/03/15 11:54:14;;;;;;;6.5;2.5;;;;;;;6.6;52.5;98400;;;;
2023/03/15 12:04:14;;;;;;;6.5;2.5;;;;;;;6.9;53.5;98400;;;;
2023/03/15 12:14:14;;;;;;;6.3;3;;;;;;;6.9;52.8;98400;;;;
2023/03/15 12:25:14;;;;;;;6.3;3;;;;;;;6.9;53.6;98400;;;;
2023/03/15 12:36:14;;;;;;;7.4;3.8;;;;;;;7.1;53.2;98400;;;;
2023/03/15 12:47:14;;;;;;;7.4;3.8;;;;;;;7.1;53;98400;;;;
2023/03/15 12:57:14;;;;;;;7.4;3.8;;;;;;;7.2;52.8;98400;;;;
2023/03/15 13:08:14;;;;;;;7.3;3.2;;;;;;;7;52.1;98410;;;;
2023/03/15 13:18:16;;;;;;;7.3;3.2;;;;;;;6.9;51.9;98400;;;;
2023/03/15 13:29:16;;;;;;;7.3;3.2;;;;;;;7.1;51.6;98410;;;;
2023/03/15 13:39:14;;;;;;;8.7;3.2;;;;;;;7.4;51.6;98420;;;;
2023/03/15 13:49:14;;;;;;;8.7;3.2;;;;;;;7.3;51.2;98430;;;;
2023/03/15 13:59:14;;;;;;;8.7;3.2;;;;;;;7.2;50.5;98440;;;;
2023/03/15 14:09:14;;;;;;;12.4;3;;;;;;;6.9;50.8;98460;;;;
2023/03/15 14:20:14;;;;;;;12.4;3;;;;;;;6.8;52.1;98470;;;;
2023/03/15 14:30:14;;;;;;;12.4;3;;;;;;;6.7;52.3;98480;;;;
2023/03/15 14:41:14;;;;;;;9.3;2.8;;;;;;;6.3;52.4;98480;;;;
2023/03/15 14:51:14;;;;;;;9.3;2.8;;;;;;;6.2;53.5;98480;;;;
2023/03/15 15:01:14;;;;;;;9.3;2.8;;;;;;;6;54.3;98500;;;;
2023/03/15 15:11:14;;;;;;;8.3;3.6;;;;;;;5.9;55.2;98500;;;;
2023/03/15 15:22:14;;;;;;;8.3;3.6;;;;;;;5.6;55.9;98510;;;;
2023/03/15 15:32:15;;;;;;;8.3;3.6;;;;;;;5.5;56;98520;;;;
2023/03/15 15:42:14;;;;;;;8.1;3.8;;;;;;;5.3;56.7;98520;;;;
2023/03/15 15:52:14;;;;;;;8.1;3.8;;;;;;;5.1;57.4;98540;;;;
2023/03/15 16:03:14;;;;;;;8.1;3.8;;;;;;;5;57.9;98550;;;;
2023/03/15 16:13:14;;;;;;;6.8;3.1;;;;;;;4.8;58.6;98560;;;;
2023/03/15 16:23:14;;;;;;;6.8;3.1;;;;;;;4.6;58.7;98560;;;;
2023/03/15 16:34:15;;;;;;;6.8;3.1;;;;;;;4.5;59.5;98580;;;;
2023/03/15 16:45:15;;;;;;;6.8;3;;;;;;;4.3;59.8;98580;;;;
2023/03/15 16:55:14;;;;;;;6.8;3;;;;;;;4.2;60.3;98610;;;;
2023/03/15 17:05:16;;;;;;;6.8;3;;;;;;;3.9;60.7;98620;;;;
2023/03/15 17:16:15;;;;;;;9.5;4.2;;;;;;;3.7;61;98640;;;;
2023/03/15 17:27:14;;;;;;;9.5;4.2;;;;;;;3.5;62;98640;;;;
2023/03/15 17:37:15;;;;;;;11.5;6.3;;;;;;;3.3;62.6;98650;;;;
2023/03/15 17:47:15;;;;;;;11.5;6.3;;;;;;;3;62.9;98660;;;;
2023/03/15 17:58:15;;;;;;;11.5;6.3;;;;;;;2.6;63.2;98670;;;;
2023/03/15 18:08:17;;;;;;;17.5;7.2;;;;;;;2.4;63.8;98670;;;;
2023/03/15 18:18:15;;;;;;;17.5;7.2;;;;;;;2.2;64.9;98670;;;;
2023/03/15 18:28:15;;;;;;;17.5;7.2;;;;;;;2.1;66.5;98660;;;;
2023/03/15 18:39:15;;;;;;;19.1;9.3;;;;;;;2;66.9;98670;;;;
2023/03/15 18:49:15;;;;;;;19.1;9.3;;;;;;;1.9;68;98670;;;;
2023/03/15 19:00:15;;;;;;;19.1;9.3;;;;;;;1.9;67.8;98680;;;;
2023/03/15 19:10:15;;;;;;;19.2;10.6;;;;;;;1.9;67.6;98690;;;;
2023/03/15 19:21:15;;;;;;;19.2;10.6;;;;;;;1.9;67.7;98690;;;;
2023/03/15 19:31:15;;;;;;;19.2;10.6;;;;;;;2;67.3;98700;;;;
2023/03/15 19:42:15;;;;;;;18;11;;;;;;;2;67.4;98700;;;;
2023/03/15 19:52:15;;;;;;;18;11;;;;;;;1.9;67.7;98720;;;;
2023/03/15 20:02:15;;;;;;;18;11;;;;;;;1.8;67.7;98730;;;;
2023/03/15 20:13:15;;;;;;;22;12.9;;;;;;;1.7;68.1;98730;;;;
2023/03/15 20:23:15;;;;;;;22;12.9;;;;;;;1.7;68.6;98740;;;;
2023/03/15 20:33:15;;;;;;;22;12.9;;;;;;;1.7;69.5;98750;;;;
2023/03/15 20:44:15;;;;;;;21.1;12.8;;;;;;;1.7;69.8;98760;;;;
2023/03/15 20:54:15;;;;;;;21.1;12.8;;;;;;;1.8;70.1;98760;;;;
2023/03/15 21:05:15;;;;;;;36.1;19.1;;;;;;;1.8;70.8;98770;;;;
2023/03/15 21:15:16;;;;;;;36.1;19.1;;;;;;;1.8;70.9;98780;;;;
2023/03/15 21:25:15;;;;;;;36.1;19.1;;;;;;;1.7;71.5;98790;;;;
2023/03/15 21:36:16;;;;;;;45.9;24.8;;;;;;;1.7;72.3;98800;;;;
2023/03/15 21:47:16;;;;;;;45.9;24.8;;;;;;;1.7;72.3;98800;;;;
2023/03/15 21:58:15;;;;;;;45.9;24.8;;;;;;;1.7;72.9;98800;;;;
2023/03/15 22:09:15;;;;;;;46.9;26.8;;;;;;;1.7;73.9;98820;;;;
2023/03/15 22:19:15;;;;;;;46.9;26.8;;;;;;;1.7;74.4;98830;;;;
2023/03/15 22:29:15;;;;;;;46.9;26.8;;;;;;;1.6;74.6;98840;;;;
2023/03/15 22:40:15;;;;;;;43.2;24.7;;;;;;;1.6;74.5;98840;;;;
2023/03/15 22:50:15;;;;;;;43.2;24.7;;;;;;;1.5;74.5;98850;;;;
2023/03/15 23:00:15;;;;;;;43.2;24.7;;;;;;;1.5;74.1;98860;;;;
2023/03/15 23:11:15;;;;;;;31.4;16.9;;;;;;;1.5;74;98870;;;;
2023/03/15 23:22:15;;;;;;;31.4;16.9;;;;;;;1.5;74.3;98890;;;;
2023/03/15 23:32:17;;;;;;;31.4;16.9;;;;;;;1.5;74.6;98900;;;;
2023/03/15 23:42:15;;;;;;;24.1;13.2;;;;;;;1.6;74.6;98900;;;;
2023/03/15 23:53:15;;;;;;;24.1;13.2;;;;;;;1.5;74.6;98910;;;;
